sensor_id;sensor_type;location;lat;lon;timestamp;pressure;altitude;pressure_sealevel;temperature;humidity
63281;BME280;49406;51.044;3.766;2023-04-03T00:00:48;103002.52;;;0.93;100.00
63281;BME280;49406;51.044;3.766;2023-04-03T00:03:21;102999.11;;;0.91;100.00
63281;BME280;49406;51.044;3.766;2023-04-03T00:05:54;103006.76;;;0.89;100.00
63281;BME280;49406;51.044;3.766;2023-04-03T00:08:27;103005.69;;;1.00;100.00
63281;BME280;49406;51.044;3.766;2023-04-03T00:11:03;103007.14;;;1.05;100.00
63281;BME280;49406;51.044;3.766;2023-04-03T00:13:36;103010.75;;;1.03;100.00
63281;BME280;49406;51.044;3.766;2023-04-03T00:16:10;103016.41;;;1.04;100.00
63281;BME280;49406;51.044;3.766;2023-04-03T00:18:43;103013.52;;;1.01;100.00
63281;BME280;49406;51.044;3.766;2023-04-03T00:21:16;103014.88;;;0.99;100.00
63281;BME280;49406;51.044;3.766;2023-04-03T00:23:49;103015.87;;;0.96;100.00
63281;BME280;49406;51.044;3.766;2023-04-03T00:26:22;103016.74;;;0.92;100.00
63281;BME280;49406;51.044;3.766;2023-04-03T00:28:54;103019.69;;;0.87;100.00
63281;BME280;49406;51.044;3.766;2023-04-03T00:31:28;103019.08;;;0.84;100.00
63281;BME280;49406;51.044;3.766;2023-04-03T00:34:00;103018.48;;;0.79;100.00
63281;BME280;49406;51.044;3.766;2023-04-03T00:36:33;103020.71;;;0.73;100.00
63281;BME280;49406;51.044;3.766;2023-04-03T00:39:05;103020.41;;;0.67;100.00
63281;BME280;49406;51.044;3.766;2023-04-03T00:41:38;103020.15;;;0.64;100.00
63281;BME280;49406;51.044;3.766;2023-04-03T00:47:12;103020.41;;;0.73;100.00
63281;BME280;49406;51.044;3.766;2023-04-03T00:49:46;103019.12;;;0.85;100.00
63281;BME280;49406;51.044;3.766;2023-04-03T00:52:21;103021.50;;;1.04;100.00
63281;BME280;49406;51.044;3.766;2023-04-03T00:54:58;103025.16;;;1.11;100.00
63281;BME280;49406;51.044;3.766;2023-04-03T00:57:33;103029.48;;;1.06;100.00
63281;BME280;49406;51.044;3.766;2023-04-03T01:00:09;103035.20;;;1.01;100.00
63281;BME280;49406;51.044;3.766;2023-04-03T01:02:43;103036.33;;;0.93;100.00
63281;BME280;49406;51.044;3.766;2023-04-03T01:05:16;103036.22;;;0.87;100.00
63281;BME280;49406;51.044;3.766;2023-04-03T01:07:50;103039.33;;;0.77;100.00
63281;BME280;49406;51.044;3.766;2023-04-03T01:10:23;103041.29;;;0.72;100.00
63281;BME280;49406;51.044;3.766;2023-04-03T01:12:57;103038.36;;;0.68;100.00
63281;BME280;49406;51.044;3.766;2023-04-03T01:15:32;103038.14;;;0.61;100.00
63281;BME280;49406;51.044;3.766;2023-04-03T01:18:10;103036.96;;;0.53;100.00
63281;BME280;49406;51.044;3.766;2023-04-03T01:21:14;103034.96;;;0.46;100.00
63281;BME280;49406;51.044;3.766;2023-04-03T01:23:59;103039.04;;;0.39;100.00
63281;BME280;49406;51.044;3.766;2023-04-03T01:26:36;103033.56;;;0.40;100.00
63281;BME280;49406;51.044;3.766;2023-04-03T01:29:09;103032.61;;;0.49;100.00
63281;BME280;49406;51.044;3.766;2023-04-03T01:31:48;103028.98;;;0.49;100.00
63281;BME280;49406;51.044;3.766;2023-04-03T01:34:21;103032.95;;;0.51;100.00
63281;BME280;49406;51.044;3.766;2023-04-03T01:36:54;103030.92;;;0.55;100.00
63281;BME280;49406;51.044;3.766;2023-04-03T01:39:27;103033.02;;;0.59;100.00
63281;BME280;49406;51.044;3.766;2023-04-03T01:41:59;103035.02;;;0.61;100.00
63281;BME280;49406;51.044;3.766;2023-04-03T01:44:32;103031.52;;;0.62;100.00
63281;BME280;49406;51.044;3.766;2023-04-03T01:47:05;103032.71;;;0.62;100.00
63281;BME280;49406;51.044;3.766;2023-04-03T01:49:38;103039.39;;;0.64;100.00
63281;BME280;49406;51.044;3.766;2023-04-03T01:52:10;103040.20;;;0.65;100.00
63281;BME280;49406;51.044;3.766;2023-04-03T01:54:43;103036.91;;;0.67;100.00
63281;BME280;49406;51.044;3.766;2023-04-03T01:57:15;103036.21;;;0.65;100.00
63281;BME280;49406;51.044;3.766;2023-04-03T01:59:48;103033.38;;;0.66;100.00
63281;BME280;49406;51.044;3.766;2023-04-03T02:02:21;103033.44;;;0.77;100.00
63281;BME280;49406;51.044;3.766;2023-04-03T02:04:53;103037.70;;;0.83;100.00
63281;BME280;49406;51.044;3.766;2023-04-03T02:07:26;103036.61;;;0.84;100.00
63281;BME280;49406;51.044;3.766;2023-04-03T02:09:59;103038.52;;;0.86;100.00
63281;BME280;49406;51.044;3.766;2023-04-03T02:12:31;103038.08;;;0.85;100.00
63281;BME280;49406;51.044;3.766;2023-04-03T02:15:06;103040.30;;;0.79;100.00
63281;BME280;49406;51.044;3.766;2023-04-03T02:17:39;103048.31;;;0.78;100.00
63281;BME280;49406;51.044;3.766;2023-04-03T02:20:12;103052.54;;;0.75;100.00
63281;BME280;49406;51.044;3.766;2023-04-03T02:22:44;103051.63;;;0.72;100.00
63281;BME280;49406;51.044;3.766;2023-04-03T02:25:17;103052.18;;;0.70;100.00
63281;BME280;49406;51.044;3.766;2023-04-03T02:27:50;103052.45;;;0.76;100.00
63281;BME280;49406;51.044;3.766;2023-04-03T02:30:22;103059.38;;;0.84;100.00
63281;BME280;49406;51.044;3.766;2023-04-03T02:32:55;103060.70;;;0.82;100.00
63281;BME280;49406;51.044;3.766;2023-04-03T02:35:27;103061.27;;;0.80;100.00
63281;BME280;49406;51.044;3.766;2023-04-03T02:38:00;103055.60;;;0.78;100.00
63281;BME280;49406;51.044;3.766;2023-04-03T02:40:32;103058.33;;;0.70;100.00
63281;BME280;49406;51.044;3.766;2023-04-03T02:43:04;103061.73;;;0.63;100.00
63281;BME280;49406;51.044;3.766;2023-04-03T02:45:37;103060.21;;;0.60;100.00
63281;BME280;49406;51.044;3.766;2023-04-03T02:48:08;103061.44;;;0.53;100.00
63281;BME280;49406;51.044;3.766;2023-04-03T02:50:40;103059.18;;;0.48;100.00
63281;BME280;49406;51.044;3.766;2023-04-03T02:53:13;103061.67;;;0.42;100.00
63281;BME280;49406;51.044;3.766;2023-04-03T02:55:47;103067.89;;;0.34;100.00
63281;BME280;49406;51.044;3.766;2023-04-03T02:58:20;103069.52;;;0.29;100.00
63281;BME280;49406;51.044;3.766;2023-04-03T03:00:52;103070.72;;;0.25;100.00
63281;BME280;49406;51.044;3.766;2023-04-03T03:03:25;103072.06;;;0.22;100.00
63281;BME280;49406;51.044;3.766;2023-04-03T03:06:09;103070.77;;;0.30;100.00
63281;BME280;49406;51.044;3.766;2023-04-03T03:08:43;103068.50;;;0.42;100.00
63281;BME280;49406;51.044;3.766;2023-04-03T03:11:15;103071.19;;;0.49;100.00
63281;BME280;49406;51.044;3.766;2023-04-03T03:13:48;103073.39;;;0.51;100.00
63281;BME280;49406;51.044;3.766;2023-04-03T03:16:21;103075.27;;;0.49;100.00
63281;BME280;49406;51.044;3.766;2023-04-03T03:18:53;103078.32;;;0.52;100.00
63281;BME280;49406;51.044;3.766;2023-04-03T03:21:26;103076.30;;;0.58;100.00
63281;BME280;49406;51.044;3.766;2023-04-03T03:23:58;103076.82;;;0.69;100.00
63281;BME280;49406;51.044;3.766;2023-04-03T03:26:31;103076.98;;;0.83;100.00
63281;BME280;49406;51.044;3.766;2023-04-03T03:29:04;103077.16;;;0.96;100.00
63281;BME280;49406;51.044;3.766;2023-04-03T03:31:36;103080.45;;;1.02;100.00
63281;BME280;49406;51.044;3.766;2023-04-03T03:34:09;103079.98;;;1.00;100.00
63281;BME280;49406;51.044;3.766;2023-04-03T03:36:41;103077.03;;;1.02;100.00
63281;BME280;49406;51.044;3.766;2023-04-03T03:39:14;103078.49;;;1.01;100.00
63281;BME280;49406;51.044;3.766;2023-04-03T03:41:47;103076.63;;;1.00;100.00
63281;BME280;49406;51.044;3.766;2023-04-03T03:44:21;103074.86;;;1.01;100.00
63281;BME280;49406;51.044;3.766;2023-04-03T03:46:54;103081.29;;;0.98;100.00
63281;BME280;49406;51.044;3.766;2023-04-03T03:49:26;103080.02;;;0.93;100.00
63281;BME280;49406;51.044;3.766;2023-04-03T03:51:59;103080.95;;;0.85;100.00
63281;BME280;49406;51.044;3.766;2023-04-03T03:54:31;103079.29;;;0.78;100.00
63281;BME280;49406;51.044;3.766;2023-04-03T03:57:04;103078.48;;;0.72;100.00
63281;BME280;49406;51.044;3.766;2023-04-03T03:59:37;103080.02;;;0.70;100.00
63281;BME280;49406;51.044;3.766;2023-04-03T04:02:10;103079.61;;;0.73;100.00
63281;BME280;49406;51.044;3.766;2023-04-03T04:04:43;103079.30;;;0.88;100.00
63281;BME280;49406;51.044;3.766;2023-04-03T04:07:15;103083.92;;;0.96;100.00
63281;BME280;49406;51.044;3.766;2023-04-03T04:09:48;103085.50;;;0.97;100.00
63281;BME280;49406;51.044;3.766;2023-04-03T04:12:21;103085.52;;;0.93;100.00
63281;BME280;49406;51.044;3.766;2023-04-03T04:14:53;103091.16;;;0.87;100.00
63281;BME280;49406;51.044;3.766;2023-04-03T04:17:26;103092.98;;;0.78;100.00
63281;BME280;49406;51.044;3.766;2023-04-03T04:19:58;103096.13;;;0.67;100.00
63281;BME280;49406;51.044;3.766;2023-04-03T04:22:31;103100.09;;;0.56;100.00
63281;BME280;49406;51.044;3.766;2023-04-03T04:25:05;103100.13;;;0.45;100.00
63281;BME280;49406;51.044;3.766;2023-04-03T04:27:38;103102.45;;;0.38;100.00
63281;BME280;49406;51.044;3.766;2023-04-03T04:30:12;103102.41;;;0.30;100.00
63281;BME280;49406;51.044;3.766;2023-04-03T04:32:45;103097.56;;;0.21;100.00
63281;BME280;49406;51.044;3.766;2023-04-03T04:35:17;103095.30;;;0.11;100.00
63281;BME280;49406;51.044;3.766;2023-04-03T04:37:50;103095.54;;;0.04;100.00
63281;BME280;49406;51.044;3.766;2023-04-03T04:40:23;103095.62;;;0.05;100.00
63281;BME280;49406;51.044;3.766;2023-04-03T04:42:55;103099.25;;;0.03;100.00
63281;BME280;49406;51.044;3.766;2023-04-03T04:45:28;103097.92;;;0.01;100.00
63281;BME280;49406;51.044;3.766;2023-04-03T04:47:59;103092.79;;;0.08;100.00
63281;BME280;49406;51.044;3.766;2023-04-03T04:50:32;103098.54;;;0.33;100.00
63281;BME280;49406;51.044;3.766;2023-04-03T04:53:04;103093.39;;;0.47;100.00
63281;BME280;49406;51.044;3.766;2023-04-03T04:55:37;103102.52;;;0.57;100.00
63281;BME280;49406;51.044;3.766;2023-04-03T04:58:10;103102.02;;;0.57;100.00
63281;BME280;49406;51.044;3.766;2023-04-03T05:00:42;103100.52;;;0.52;100.00
63281;BME280;49406;51.044;3.766;2023-04-03T05:03:15;103097.63;;;0.44;100.00
63281;BME280;49406;51.044;3.766;2023-04-03T05:05:48;103096.10;;;0.34;100.00
63281;BME280;49406;51.044;3.766;2023-04-03T05:08:20;103095.08;;;0.22;100.00
63281;BME280;49406;51.044;3.766;2023-04-03T05:10:53;103094.08;;;0.13;100.00
63281;BME280;49406;51.044;3.766;2023-04-03T05:13:25;103091.67;;;0.13;100.00
63281;BME280;49406;51.044;3.766;2023-04-03T05:15:57;103094.06;;;0.18;100.00
63281;BME280;49406;51.044;3.766;2023-04-03T05:18:29;103097.40;;;0.27;100.00
63281;BME280;49406;51.044;3.766;2023-04-03T05:21:02;103095.45;;;0.37;100.00
63281;BME280;49406;51.044;3.766;2023-04-03T05:23:35;103097.16;;;0.57;100.00
63281;BME280;49406;51.044;3.766;2023-04-03T05:26:07;103102.17;;;0.67;100.00
63281;BME280;49406;51.044;3.766;2023-04-03T05:28:40;103098.69;;;0.73;100.00
63281;BME280;49406;51.044;3.766;2023-04-03T05:31:13;103102.73;;;0.80;100.00
63281;BME280;49406;51.044;3.766;2023-04-03T05:33:46;103103.96;;;0.88;100.00
63281;BME280;49406;51.044;3.766;2023-04-03T05:36:18;103102.05;;;1.11;100.00
63281;BME280;49406;51.044;3.766;2023-04-03T05:38:51;103106.45;;;1.39;100.00
63281;BME280;49406;51.044;3.766;2023-04-03T05:41:24;103109.80;;;1.64;100.00
63281;BME280;49406;51.044;3.766;2023-04-03T05:43:57;103114.31;;;1.81;100.00
63281;BME280;49406;51.044;3.766;2023-04-03T05:46:29;103120.80;;;1.98;100.00
63281;BME280;49406;51.044;3.766;2023-04-03T05:49:02;103121.67;;;2.24;100.00
63281;BME280;49406;51.044;3.766;2023-04-03T05:51:37;103116.98;;;2.62;100.00
63281;BME280;49406;51.044;3.766;2023-04-03T05:54:13;103118.06;;;3.03;100.00
63281;BME280;49406;51.044;3.766;2023-04-03T05:56:47;103118.73;;;3.42;100.00
63281;BME280;49406;51.044;3.766;2023-04-03T05:59:20;103121.30;;;3.73;100.00
63281;BME280;49406;51.044;3.766;2023-04-03T06:01:53;103129.86;;;4.05;100.00
63281;BME280;49406;51.044;3.766;2023-04-03T06:04:26;103130.98;;;4.40;100.00
63281;BME280;49406;51.044;3.766;2023-04-03T06:06:58;103133.98;;;4.76;100.00
63281;BME280;49406;51.044;3.766;2023-04-03T06:09:31;103133.44;;;5.20;100.00
63281;BME280;49406;51.044;3.766;2023-04-03T06:12:04;103133.28;;;5.68;100.00
63281;BME280;49406;51.044;3.766;2023-04-03T06:14:37;103133.36;;;6.12;100.00
63281;BME280;49406;51.044;3.766;2023-04-03T06:17:09;103138.29;;;6.52;100.00
63281;BME280;49406;51.044;3.766;2023-04-03T06:19:42;103137.08;;;6.83;100.00
63281;BME280;49406;51.044;3.766;2023-04-03T06:22:15;103137.31;;;6.99;100.00
63281;BME280;49406;51.044;3.766;2023-04-03T06:24:48;103138.02;;;7.17;100.00
63281;BME280;49406;51.044;3.766;2023-04-03T06:27:20;103138.91;;;7.38;100.00
63281;BME280;49406;51.044;3.766;2023-04-03T06:29:53;103135.64;;;7.38;100.00
63281;BME280;49406;51.044;3.766;2023-04-03T06:32:25;103136.33;;;7.29;100.00
63281;BME280;49406;51.044;3.766;2023-04-03T06:34:58;103136.86;;;7.30;100.00
63281;BME280;49406;51.044;3.766;2023-04-03T06:37:32;103138.40;;;7.26;98.24
63281;BME280;49406;51.044;3.766;2023-04-03T06:40:06;103142.80;;;7.09;98.23
63281;BME280;49406;51.044;3.766;2023-04-03T06:42:39;103145.23;;;6.94;97.05
63281;BME280;49406;51.044;3.766;2023-04-03T06:45:12;103147.46;;;6.85;97.43
63281;BME280;49406;51.044;3.766;2023-04-03T06:47:45;103144.91;;;6.89;96.48
63281;BME280;49406;51.044;3.766;2023-04-03T06:50:18;103142.41;;;6.94;95.81
63281;BME280;49406;51.044;3.766;2023-04-03T06:52:50;103146.33;;;6.99;95.72
63281;BME280;49406;51.044;3.766;2023-04-03T06:55:23;103150.38;;;7.05;95.67
63281;BME280;49406;51.044;3.766;2023-04-03T06:57:56;103150.20;;;7.11;94.99
63281;BME280;49406;51.044;3.766;2023-04-03T07:00:28;103147.02;;;7.16;95.62
63281;BME280;49406;51.044;3.766;2023-04-03T07:03:01;103146.80;;;7.36;95.77
63281;BME280;49406;51.044;3.766;2023-04-03T07:05:34;103149.22;;;7.47;96.49
63281;BME280;49406;51.044;3.766;2023-04-03T07:08:07;103149.95;;;7.66;95.57
63281;BME280;49406;51.044;3.766;2023-04-03T07:10:39;103153.48;;;7.86;94.91
63281;BME280;49406;51.044;3.766;2023-04-03T07:13:12;103156.80;;;7.92;91.22
63281;BME280;49406;51.044;3.766;2023-04-03T07:15:44;103155.93;;;7.76;89.88
63281;BME280;49406;51.044;3.766;2023-04-03T07:18:17;103154.45;;;7.66;88.92
63281;BME280;49406;51.044;3.766;2023-04-03T07:20:50;103159.41;;;7.52;89.15
63281;BME280;49406;51.044;3.766;2023-04-03T07:23:24;103164.40;;;7.57;90.64
63281;BME280;49406;51.044;3.766;2023-04-03T07:25:57;103164.71;;;7.75;90.06
63281;BME280;49406;51.044;3.766;2023-04-03T07:28:29;103166.14;;;7.88;89.74
63281;BME280;49406;51.044;3.766;2023-04-03T07:31:04;103164.09;;;7.92;89.37
63281;BME280;49406;51.044;3.766;2023-04-03T07:33:38;103166.46;;;7.87;86.87
63281;BME280;49406;51.044;3.766;2023-04-03T07:36:15;103163.29;;;7.90;87.74
63281;BME280;49406;51.044;3.766;2023-04-03T07:38:49;103161.69;;;7.83;87.02
63281;BME280;49406;51.044;3.766;2023-04-03T07:41:21;103161.37;;;7.84;88.17
63281;BME280;49406;51.044;3.766;2023-04-03T07:43:55;103163.91;;;8.01;88.31
63281;BME280;49406;51.044;3.766;2023-04-03T07:46:28;103167.11;;;8.17;86.80
63281;BME280;49406;51.044;3.766;2023-04-03T07:49:01;103172.14;;;8.10;83.85
63281;BME280;49406;51.044;3.766;2023-04-03T07:51:33;103173.94;;;8.12;86.53
63281;BME280;49406;51.044;3.766;2023-04-03T07:54:06;103178.89;;;8.29;85.04
63281;BME280;49406;51.044;3.766;2023-04-03T07:56:39;103180.13;;;8.23;83.07
63281;BME280;49406;51.044;3.766;2023-04-03T07:59:11;103178.23;;;8.24;84.29
63281;BME280;49406;51.044;3.766;2023-04-03T08:01:44;103184.50;;;8.48;87.13
63281;BME280;49406;51.044;3.766;2023-04-03T08:04:17;103186.85;;;8.86;84.44
63281;BME280;49406;51.044;3.766;2023-04-03T08:06:49;103192.95;;;9.09;83.05
63281;BME280;49406;51.044;3.766;2023-04-03T08:09:22;103181.04;;;9.25;82.41
63281;BME280;49406;51.044;3.766;2023-04-03T08:11:55;103187.47;;;9.28;79.21
63281;BME280;49406;51.044;3.766;2023-04-03T08:14:28;103189.27;;;8.98;77.71
63281;BME280;49406;51.044;3.766;2023-04-03T08:17:02;103186.27;;;8.98;81.29
63281;BME280;49406;51.044;3.766;2023-04-03T08:19:37;103183.56;;;9.03;80.75
63281;BME280;49406;51.044;3.766;2023-04-03T08:22:09;103183.50;;;9.22;81.81
63281;BME280;49406;51.044;3.766;2023-04-03T08:24:42;103180.72;;;9.36;79.24
63281;BME280;49406;51.044;3.766;2023-04-03T08:27:15;103180.96;;;9.44;77.84
63281;BME280;49406;51.044;3.766;2023-04-03T08:29:47;103175.39;;;9.45;76.11
63281;BME280;49406;51.044;3.766;2023-04-03T08:32:20;103174.80;;;9.33;75.65
63281;BME280;49406;51.044;3.766;2023-04-03T08:34:52;103176.66;;;9.14;75.38
63281;BME280;49406;51.044;3.766;2023-04-03T08:37:25;103176.30;;;9.08;76.96
63281;BME280;49406;51.044;3.766;2023-04-03T08:39:58;103171.18;;;9.23;75.34
63281;BME280;49406;51.044;3.766;2023-04-03T08:42:39;103168.80;;;9.31;69.80
63281;BME280;49406;51.044;3.766;2023-04-03T08:45:15;103173.20;;;9.32;69.71
63281;BME280;49406;51.044;3.766;2023-04-03T08:47:53;103177.20;;;9.39;69.18
63281;BME280;49406;51.044;3.766;2023-04-03T08:50:33;103182.24;;;9.49;69.21
63281;BME280;49406;51.044;3.766;2023-04-03T08:53:13;103185.64;;;9.47;67.39
63281;BME280;49406;51.044;3.766;2023-04-03T08:55:47;103183.50;;;9.46;67.71
63281;BME280;49406;51.044;3.766;2023-04-03T08:58:23;103181.29;;;9.44;67.28
63281;BME280;49406;51.044;3.766;2023-04-03T09:01:00;103178.25;;;9.57;66.75
63281;BME280;49406;51.044;3.766;2023-04-03T09:03:37;103183.94;;;9.83;68.56
63281;BME280;49406;51.044;3.766;2023-04-03T09:06:14;103183.80;;;10.03;65.25
63281;BME280;49406;51.044;3.766;2023-04-03T09:08:50;103184.23;;;10.04;64.56
63281;BME280;49406;51.044;3.766;2023-04-03T09:11:26;103183.70;;;10.07;65.14
63281;BME280;49406;51.044;3.766;2023-04-03T09:14:04;103183.69;;;9.96;64.19
63281;BME280;49406;51.044;3.766;2023-04-03T09:16:48;103180.16;;;9.95;64.28
63281;BME280;49406;51.044;3.766;2023-04-03T09:19:30;103174.91;;;10.07;64.06
63281;BME280;49406;51.044;3.766;2023-04-03T09:22:16;103175.81;;;10.10;64.18
63281;BME280;49406;51.044;3.766;2023-04-03T09:24:55;103169.17;;;10.22;64.18
63281;BME280;49406;51.044;3.766;2023-04-03T09:27:29;103165.25;;;10.31;63.12
63281;BME280;49406;51.044;3.766;2023-04-03T09:30:03;103169.07;;;10.30;61.12
63281;BME280;49406;51.044;3.766;2023-04-03T09:32:36;103171.79;;;10.07;59.23
63281;BME280;49406;51.044;3.766;2023-04-03T09:35:19;103162.50;;;10.07;60.65
63281;BME280;49406;51.044;3.766;2023-04-03T09:37:53;103166.54;;;10.14;57.60
63281;BME280;49406;51.044;3.766;2023-04-03T09:40:33;103168.37;;;10.05;56.64
63281;BME280;49406;51.044;3.766;2023-04-03T09:43:27;103162.70;;;10.11;58.70
63281;BME280;49406;51.044;3.766;2023-04-03T09:46:29;103166.12;;;10.13;57.12
63281;BME280;49406;51.044;3.766;2023-04-03T09:49:04;103161.79;;;10.13;56.52
63281;BME280;49406;51.044;3.766;2023-04-03T09:51:38;103161.04;;;10.16;56.04
63281;BME280;49406;51.044;3.766;2023-04-03T09:54:37;103162.44;;;10.23;57.58
63281;BME280;49406;51.044;3.766;2023-04-03T09:57:13;103163.52;;;10.34;58.67
63281;BME280;49406;51.044;3.766;2023-04-03T09:59:56;103165.79;;;10.54;58.84
63281;BME280;49406;51.044;3.766;2023-04-03T10:02:37;103162.92;;;10.60;56.81
63281;BME280;49406;51.044;3.766;2023-04-03T10:05:33;103155.77;;;10.76;56.29
63281;BME280;49406;51.044;3.766;2023-04-03T10:08:15;103149.84;;;10.92;57.73
63281;BME280;49406;51.044;3.766;2023-04-03T10:11:07;103145.88;;;11.14;57.48
63281;BME280;49406;51.044;3.766;2023-04-03T10:13:52;103151.26;;;10.97;56.08
63281;BME280;49406;51.044;3.766;2023-04-03T10:16:34;103146.71;;;10.89;55.75
63281;BME280;49406;51.044;3.766;2023-04-03T10:19:38;103149.58;;;10.95;55.92
63281;BME280;49406;51.044;3.766;2023-04-03T10:22:19;103144.11;;;11.09;53.39
63281;BME280;49406;51.044;3.766;2023-04-03T10:25:00;103137.66;;;10.98;52.50
63281;BME280;49406;51.044;3.766;2023-04-03T10:27:44;103135.02;;;11.10;51.42
63281;BME280;49406;51.044;3.766;2023-04-03T10:30:41;103136.31;;;10.91;50.77
63281;BME280;49406;51.044;3.766;2023-04-03T10:33:23;103135.36;;;10.98;50.85
63281;BME280;49406;51.044;3.766;2023-04-03T10:36:09;103131.27;;;10.84;47.97
63281;BME280;49406;51.044;3.766;2023-04-03T10:38:51;103123.48;;;10.78;49.50
63281;BME280;49406;51.044;3.766;2023-04-03T10:41:34;103123.42;;;10.85;49.28
63281;BME280;49406;51.044;3.766;2023-04-03T10:44:19;103123.13;;;10.90;49.57
63281;BME280;49406;51.044;3.766;2023-04-03T10:46:58;103121.45;;;11.00;49.84
63281;BME280;49406;51.044;3.766;2023-04-03T10:49:45;103119.08;;;10.98;47.81
63281;BME280;49406;51.044;3.766;2023-04-03T10:52:25;103115.58;;;11.02;48.69
63281;BME280;49406;51.044;3.766;2023-04-03T10:55:08;103116.84;;;10.99;49.65
63281;BME280;49406;51.044;3.766;2023-04-03T10:57:48;103114.80;;;11.08;49.62
63281;BME280;49406;51.044;3.766;2023-04-03T11:00:25;103114.66;;;10.93;49.54
63281;BME280;49406;51.044;3.766;2023-04-03T11:03:06;103110.54;;;11.02;49.08
63281;BME280;49406;51.044;3.766;2023-04-03T11:05:43;103106.86;;;11.28;50.89
63281;BME280;49406;51.044;3.766;2023-04-03T11:08:26;103104.11;;;11.46;49.36
63281;BME280;49406;51.044;3.766;2023-04-03T11:11:01;103103.89;;;11.49;47.25
63281;BME280;49406;51.044;3.766;2023-04-03T11:13:38;103107.90;;;11.32;45.21
63281;BME280;49406;51.044;3.766;2023-04-03T11:16:18;103097.32;;;11.18;45.74
63281;BME280;49406;51.044;3.766;2023-04-03T11:18:56;103097.63;;;11.16;46.25
63281;BME280;49406;51.044;3.766;2023-04-03T11:21:36;103093.21;;;11.28;47.59
63281;BME280;49406;51.044;3.766;2023-04-03T11:24:17;103089.14;;;11.31;46.36
63281;BME280;49406;51.044;3.766;2023-04-03T11:26:55;103079.89;;;11.28;46.95
63281;BME280;49406;51.044;3.766;2023-04-03T11:29:31;103076.94;;;11.46;47.52
63281;BME280;49406;51.044;3.766;2023-04-03T11:32:11;103076.90;;;11.44;44.94
63281;BME280;49406;51.044;3.766;2023-04-03T11:34:52;103072.34;;;11.36;42.00
63281;BME280;49406;51.044;3.766;2023-04-03T11:37:31;103064.30;;;11.28;41.31
63281;BME280;49406;51.044;3.766;2023-04-03T11:40:18;103060.73;;;11.30;40.05
63281;BME280;49406;51.044;3.766;2023-04-03T11:42:55;103057.29;;;11.58;41.54
63281;BME280;49406;51.044;3.766;2023-04-03T11:45:49;103059.40;;;11.76;41.06
63281;BME280;49406;51.044;3.766;2023-04-03T11:48:50;103054.52;;;11.76;39.94
63281;BME280;49406;51.044;3.766;2023-04-03T11:51:51;103047.14;;;11.71;39.89
63281;BME280;49406;51.044;3.766;2023-04-03T11:54:50;103044.06;;;11.56;37.73
63281;BME280;49406;51.044;3.766;2023-04-03T12:01:01;103025.65;;;11.87;39.30
63281;BME280;49406;51.044;3.766;2023-04-03T12:09:58;103027.45;;;11.79;36.74
63281;BME280;49406;51.044;3.766;2023-04-03T12:12:35;103019.61;;;11.85;36.85
63281;BME280;49406;51.044;3.766;2023-04-03T12:18:41;103013.29;;;11.84;37.47
63281;BME280;49406;51.044;3.766;2023-04-03T12:21:15;103015.18;;;11.93;36.75
63281;BME280;49406;51.044;3.766;2023-04-03T12:24:02;103010.27;;;11.92;37.22
63281;BME280;49406;51.044;3.766;2023-04-03T12:26:40;103008.20;;;11.98;36.72
63281;BME280;49406;51.044;3.766;2023-04-03T12:29:18;103001.41;;;12.09;37.60
63281;BME280;49406;51.044;3.766;2023-04-03T12:32:04;103000.92;;;12.14;36.57
63281;BME280;49406;51.044;3.766;2023-04-03T12:34:53;103001.06;;;12.23;37.23
63281;BME280;49406;51.044;3.766;2023-04-03T12:37:44;103005.17;;;12.26;35.79
63281;BME280;49406;51.044;3.766;2023-04-03T12:40:26;103001.29;;;12.20;36.68
63281;BME280;49406;51.044;3.766;2023-04-03T12:43:17;102999.39;;;12.21;35.65
63281;BME280;49406;51.044;3.766;2023-04-03T12:45:59;102999.09;;;12.17;36.30
63281;BME280;49406;51.044;3.766;2023-04-03T12:48:39;102992.92;;;12.12;36.03
63281;BME280;49406;51.044;3.766;2023-04-03T12:51:20;102996.70;;;12.05;37.03
63281;BME280;49406;51.044;3.766;2023-04-03T12:53:58;102999.26;;;11.93;36.68
63281;BME280;49406;51.044;3.766;2023-04-03T12:56:32;102995.17;;;11.78;36.82
63281;BME280;49406;51.044;3.766;2023-04-03T12:59:16;102993.22;;;11.78;36.96
63281;BME280;49406;51.044;3.766;2023-04-03T13:01:58;102987.58;;;11.86;37.26
63281;BME280;49406;51.044;3.766;2023-04-03T13:04:32;102988.93;;;11.84;35.04
63281;BME280;49406;51.044;3.766;2023-04-03T13:07:04;102981.46;;;11.91;35.86
63281;BME280;49406;51.044;3.766;2023-04-03T13:09:37;102985.62;;;11.90;34.87
63281;BME280;49406;51.044;3.766;2023-04-03T13:12:13;102980.39;;;11.86;34.24
63281;BME280;49406;51.044;3.766;2023-04-03T13:14:54;102974.08;;;11.90;34.47
63281;BME280;49406;51.044;3.766;2023-04-03T13:17:28;102970.89;;;11.85;34.74
63281;BME280;49406;51.044;3.766;2023-04-03T13:20:12;102972.93;;;11.83;34.50
63281;BME280;49406;51.044;3.766;2023-04-03T13:22:49;102966.33;;;11.85;34.57
63281;BME280;49406;51.044;3.766;2023-04-03T13:25:25;102958.55;;;11.97;35.00
63281;BME280;49406;51.044;3.766;2023-04-03T13:28:00;102962.24;;;12.02;34.35
63281;BME280;49406;51.044;3.766;2023-04-03T13:30:35;102959.73;;;12.05;34.92
63281;BME280;49406;51.044;3.766;2023-04-03T13:33:20;102952.70;;;12.10;34.15
63281;BME280;49406;51.044;3.766;2023-04-03T13:35:57;102961.76;;;12.18;35.52
63281;BME280;49406;51.044;3.766;2023-04-03T13:38:31;102953.67;;;12.27;34.33
63281;BME280;49406;51.044;3.766;2023-04-03T13:41:25;102948.39;;;12.22;33.70
63281;BME280;49406;51.044;3.766;2023-04-03T13:44:16;102954.32;;;12.36;35.17
63281;BME280;49406;51.044;3.766;2023-04-03T13:46:49;102958.95;;;12.39;32.71
63281;BME280;49406;51.044;3.766;2023-04-03T13:49:32;102955.60;;;12.32;30.68
63281;BME280;49406;51.044;3.766;2023-04-03T13:52:23;102953.12;;;12.27;32.35
63281;BME280;49406;51.044;3.766;2023-04-03T13:54:59;102955.02;;;12.11;31.12